Weather at DR2 Heliport

Public forecast

Using degrees Fahrenheit for public forecast. Weather courtesy of forecast.io.

Closest aviation weather report (METAR) to DR2 Heliport

Closest report is Allentown Queen City Municipal Airport, 7.4 nm (13.7 km) ESE. Retrieved 2021/06/23 03:15 UTC (14 minutes ago):

KXLL 230315Z AUTO 00000KT 10SM CLR 13/10 A3001 RMK AO2

Closest aviation forecast (TAF) to DR2 Heliport

Closest forecast is Lehigh Valley International Airport, 9.6 nm (17.8 km) ENE. Retrieved 2021-06-23 00:30 UTC (3 hours ago):

TAF KABE 222328Z 2300/2324 32007KT P6SM SCT050 BKN200 FM230200 VRB02KT 6SM BR SKC FM231200 33005KT P6SM FEW060